sensor_id;sensor_type;location;lat;lon;timestamp;P1;durP1;ratioP1;P2;durP2;ratioP2
24147;SDS011;12309;51.450;-2.624;2023-06-22T00:00:52;6.40;;;4.97;;
24147;SDS011;12309;51.450;-2.624;2023-06-22T00:03:18;9.23;;;5.22;;
24147;SDS011;12309;51.450;-2.624;2023-06-22T00:05:46;7.30;;;5.38;;
24147;SDS011;12309;51.450;-2.624;2023-06-22T00:08:12;7.45;;;4.60;;
24147;SDS011;12309;51.450;-2.624;2023-06-22T00:10:38;6.70;;;4.80;;
24147;SDS011;12309;51.450;-2.624;2023-06-22T00:13:08;7.07;;;5.35;;
24147;SDS011;12309;51.450;-2.624;2023-06-22T00:15:36;10.55;;;5.75;;
24147;SDS011;12309;51.450;-2.624;2023-06-22T00:18:03;10.57;;;5.60;;
24147;SDS011;12309;51.450;-2.624;2023-06-22T00:20:29;9.80;;;5.00;;
24147;SDS011;12309;51.450;-2.624;2023-06-22T00:22:55;6.80;;;5.47;;
24147;SDS011;12309;51.450;-2.624;2023-06-22T00:25:22;11.13;;;5.65;;
24147;SDS011;12309;51.450;-2.624;2023-06-22T00:27:47;8.90;;;5.63;;
24147;SDS011;12309;51.450;-2.624;2023-06-22T00:30:14;6.50;;;5.35;;
24147;SDS011;12309;51.450;-2.624;2023-06-22T00:32:41;12.52;;;6.07;;
24147;SDS011;12309;51.450;-2.624;2023-06-22T00:35:07;7.35;;;5.55;;
24147;SDS011;12309;51.450;-2.624;2023-06-22T00:37:33;9.00;;;6.05;;
24147;SDS011;12309;51.450;-2.624;2023-06-22T00:40:00;10.27;;;6.40;;
24147;SDS011;12309;51.450;-2.624;2023-06-22T00:42:26;11.13;;;6.20;;
24147;SDS011;12309;51.450;-2.624;2023-06-22T00:44:52;12.80;;;6.75;;
24147;SDS011;12309;51.450;-2.624;2023-06-22T00:47:18;10.93;;;6.35;;
24147;SDS011;12309;51.450;-2.624;2023-06-22T00:49:44;10.98;;;6.38;;
24147;SDS011;12309;51.450;-2.624;2023-06-22T00:52:11;9.90;;;6.53;;
24147;SDS011;12309;51.450;-2.624;2023-06-22T00:54:45;9.80;;;5.40;;
24147;SDS011;12309;51.450;-2.624;2023-06-22T00:57:15;9.55;;;5.68;;
24147;SDS011;12309;51.450;-2.624;2023-06-22T00:59:43;9.63;;;5.88;;
24147;SDS011;12309;51.450;-2.624;2023-06-22T01:02:10;11.02;;;6.00;;
24147;SDS011;12309;51.450;-2.624;2023-06-22T01:04:37;12.32;;;7.47;;
24147;SDS011;12309;51.450;-2.624;2023-06-22T01:09:44;10.68;;;6.68;;
24147;SDS011;12309;51.450;-2.624;2023-06-22T01:12:16;10.07;;;7.20;;
24147;SDS011;12309;51.450;-2.624;2023-06-22T01:14:45;12.77;;;8.02;;
24147;SDS011;12309;51.450;-2.624;2023-06-22T01:17:17;13.98;;;7.35;;
24147;SDS011;12309;51.450;-2.624;2023-06-22T01:19:45;12.00;;;7.00;;
24147;SDS011;12309;51.450;-2.624;2023-06-22T01:22:17;12.23;;;7.10;;
24147;SDS011;12309;51.450;-2.624;2023-06-22T01:29:47;10.95;;;6.38;;
24147;SDS011;12309;51.450;-2.624;2023-06-22T01:32:16;9.55;;;6.50;;
24147;SDS011;12309;51.450;-2.624;2023-06-22T01:34:43;11.50;;;6.43;;
24147;SDS011;12309;51.450;-2.624;2023-06-22T01:37:09;10.95;;;6.40;;
24147;SDS011;12309;51.450;-2.624;2023-06-22T01:39:35;13.43;;;6.70;;
24147;SDS011;12309;51.450;-2.624;2023-06-22T01:42:02;9.70;;;7.00;;
24147;SDS011;12309;51.450;-2.624;2023-06-22T01:44:28;17.33;;;8.35;;
24147;SDS011;12309;51.450;-2.624;2023-06-22T01:46:54;16.48;;;9.70;;
24147;SDS011;12309;51.450;-2.624;2023-06-22T01:49:20;17.25;;;10.38;;
24147;SDS011;12309;51.450;-2.624;2023-06-22T01:51:46;19.67;;;10.43;;
24147;SDS011;12309;51.450;-2.624;2023-06-22T01:54:12;15.55;;;10.25;;
24147;SDS011;12309;51.450;-2.624;2023-06-22T01:56:38;14.77;;;8.70;;
24147;SDS011;12309;51.450;-2.624;2023-06-22T01:59:12;16.08;;;9.23;;
24147;SDS011;12309;51.450;-2.624;2023-06-22T02:01:51;14.65;;;9.18;;
24147;SDS011;12309;51.450;-2.624;2023-06-22T02:04:25;14.57;;;9.40;;
24147;SDS011;12309;51.450;-2.624;2023-06-22T02:06:56;17.73;;;8.82;;
24147;SDS011;12309;51.450;-2.624;2023-06-22T02:09:25;18.17;;;9.98;;
24147;SDS011;12309;51.450;-2.624;2023-06-22T02:11:53;15.57;;;9.55;;
24147;SDS011;12309;51.450;-2.624;2023-06-22T02:14:21;18.10;;;9.27;;
24147;SDS011;12309;51.450;-2.624;2023-06-22T02:16:48;23.05;;;10.57;;
24147;SDS011;12309;51.450;-2.624;2023-06-22T02:19:14;18.38;;;10.40;;
24147;SDS011;12309;51.450;-2.624;2023-06-22T02:21:40;17.10;;;9.98;;
24147;SDS011;12309;51.450;-2.624;2023-06-22T02:24:06;16.05;;;9.63;;
24147;SDS011;12309;51.450;-2.624;2023-06-22T02:26:32;15.02;;;9.02;;
24147;SDS011;12309;51.450;-2.624;2023-06-22T02:28:57;15.93;;;9.15;;
24147;SDS011;12309;51.450;-2.624;2023-06-22T02:31:23;15.40;;;8.73;;
24147;SDS011;12309;51.450;-2.624;2023-06-22T02:33:55;13.45;;;8.68;;
24147;SDS011;12309;51.450;-2.624;2023-06-22T02:36:24;16.80;;;9.57;;
24147;SDS011;12309;51.450;-2.624;2023-06-22T02:38:51;13.55;;;8.80;;
24147;SDS011;12309;51.450;-2.624;2023-06-22T02:41:18;15.85;;;8.98;;
24147;SDS011;12309;51.450;-2.624;2023-06-22T02:43:47;14.57;;;9.52;;
24147;SDS011;12309;51.450;-2.624;2023-06-22T02:46:13;12.48;;;8.80;;
24147;SDS011;12309;51.450;-2.624;2023-06-22T02:48:39;15.60;;;9.02;;
24147;SDS011;12309;51.450;-2.624;2023-06-22T02:51:05;14.52;;;8.50;;
24147;SDS011;12309;51.450;-2.624;2023-06-22T02:53:31;12.73;;;8.93;;
24147;SDS011;12309;51.450;-2.624;2023-06-22T02:55:57;12.68;;;8.57;;
24147;SDS011;12309;51.450;-2.624;2023-06-22T02:58:23;13.65;;;9.23;;
24147;SDS011;12309;51.450;-2.624;2023-06-22T03:00:49;15.32;;;8.95;;
24147;SDS011;12309;51.450;-2.624;2023-06-22T03:03:18;15.20;;;9.73;;
24147;SDS011;12309;51.450;-2.624;2023-06-22T03:05:44;13.27;;;9.13;;
24147;SDS011;12309;51.450;-2.624;2023-06-22T03:08:10;16.55;;;9.05;;
24147;SDS011;12309;51.450;-2.624;2023-06-22T03:10:35;14.65;;;9.80;;
24147;SDS011;12309;51.450;-2.624;2023-06-22T03:13:01;14.63;;;8.43;;
24147;SDS011;12309;51.450;-2.624;2023-06-22T03:15:26;12.40;;;8.57;;
24147;SDS011;12309;51.450;-2.624;2023-06-22T03:17:54;14.63;;;9.13;;
24147;SDS011;12309;51.450;-2.624;2023-06-22T03:20:20;13.35;;;8.77;;
24147;SDS011;12309;51.450;-2.624;2023-06-22T03:22:45;14.23;;;8.57;;
24147;SDS011;12309;51.450;-2.624;2023-06-22T03:25:11;12.48;;;8.80;;
24147;SDS011;12309;51.450;-2.624;2023-06-22T03:27:40;14.38;;;8.60;;
24147;SDS011;12309;51.450;-2.624;2023-06-22T03:30:07;14.75;;;8.65;;
24147;SDS011;12309;51.450;-2.624;2023-06-22T03:32:34;12.98;;;8.57;;
24147;SDS011;12309;51.450;-2.624;2023-06-22T03:35:00;13.90;;;8.60;;
24147;SDS011;12309;51.450;-2.624;2023-06-22T03:37:26;14.82;;;8.57;;
24147;SDS011;12309;51.450;-2.624;2023-06-22T03:39:52;13.65;;;8.68;;
24147;SDS011;12309;51.450;-2.624;2023-06-22T03:42:18;12.30;;;8.63;;
24147;SDS011;12309;51.450;-2.624;2023-06-22T03:44:44;14.68;;;8.60;;
24147;SDS011;12309;51.450;-2.624;2023-06-22T03:47:10;13.07;;;8.63;;
24147;SDS011;12309;51.450;-2.624;2023-06-22T03:49:35;14.13;;;8.18;;
24147;SDS011;12309;51.450;-2.624;2023-06-22T03:52:02;13.65;;;8.40;;
24147;SDS011;12309;51.450;-2.624;2023-06-22T03:54:28;14.02;;;8.30;;
24147;SDS011;12309;51.450;-2.624;2023-06-22T03:56:55;18.45;;;9.15;;
24147;SDS011;12309;51.450;-2.624;2023-06-22T03:59:22;13.80;;;8.52;;
24147;SDS011;12309;51.450;-2.624;2023-06-22T04:01:48;14.55;;;8.10;;
24147;SDS011;12309;51.450;-2.624;2023-06-22T04:04:13;15.20;;;8.27;;
24147;SDS011;12309;51.450;-2.624;2023-06-22T04:06:39;15.70;;;8.40;;
24147;SDS011;12309;51.450;-2.624;2023-06-22T04:09:07;12.23;;;7.93;;
24147;SDS011;12309;51.450;-2.624;2023-06-22T04:11:33;15.68;;;8.25;;
24147;SDS011;12309;51.450;-2.624;2023-06-22T04:13:59;11.02;;;7.45;;
24147;SDS011;12309;51.450;-2.624;2023-06-22T04:16:25;11.27;;;7.93;;
24147;SDS011;12309;51.450;-2.624;2023-06-22T04:18:50;13.35;;;7.97;;
24147;SDS011;12309;51.450;-2.624;2023-06-22T04:21:16;11.60;;;7.95;;
24147;SDS011;12309;51.450;-2.624;2023-06-22T04:23:42;13.82;;;8.38;;
24147;SDS011;12309;51.450;-2.624;2023-06-22T04:26:08;11.35;;;7.75;;
24147;SDS011;12309;51.450;-2.624;2023-06-22T04:28:34;12.27;;;8.15;;
24147;SDS011;12309;51.450;-2.624;2023-06-22T04:31:03;13.05;;;8.10;;
24147;SDS011;12309;51.450;-2.624;2023-06-22T04:33:28;10.30;;;7.93;;
24147;SDS011;12309;51.450;-2.624;2023-06-22T04:35:54;13.07;;;8.40;;
24147;SDS011;12309;51.450;-2.624;2023-06-22T04:38:22;13.50;;;8.52;;
24147;SDS011;12309;51.450;-2.624;2023-06-22T04:40:48;11.52;;;8.13;;
24147;SDS011;12309;51.450;-2.624;2023-06-22T04:43:14;14.48;;;8.48;;
24147;SDS011;12309;51.450;-2.624;2023-06-22T04:45:39;13.43;;;8.20;;
24147;SDS011;12309;51.450;-2.624;2023-06-22T04:48:05;10.70;;;7.43;;
24147;SDS011;12309;51.450;-2.624;2023-06-22T04:50:31;11.43;;;7.88;;
24147;SDS011;12309;51.450;-2.624;2023-06-22T04:52:57;11.85;;;8.02;;
24147;SDS011;12309;51.450;-2.624;2023-06-22T04:55:23;9.80;;;7.72;;
24147;SDS011;12309;51.450;-2.624;2023-06-22T04:57:50;11.95;;;8.73;;
24147;SDS011;12309;51.450;-2.624;2023-06-22T05:00:17;12.90;;;7.88;;
24147;SDS011;12309;51.450;-2.624;2023-06-22T05:02:48;9.75;;;7.63;;
24147;SDS011;12309;51.450;-2.624;2023-06-22T05:05:14;11.13;;;7.63;;
24147;SDS011;12309;51.450;-2.624;2023-06-22T05:07:43;13.65;;;8.48;;
24147;SDS011;12309;51.450;-2.624;2023-06-22T05:10:10;11.10;;;7.57;;
24147;SDS011;12309;51.450;-2.624;2023-06-22T05:12:37;11.57;;;7.88;;
24147;SDS011;12309;51.450;-2.624;2023-06-22T05:15:04;13.45;;;8.27;;
24147;SDS011;12309;51.450;-2.624;2023-06-22T05:17:31;16.15;;;8.55;;
24147;SDS011;12309;51.450;-2.624;2023-06-22T05:19:57;11.07;;;8.23;;
24147;SDS011;12309;51.450;-2.624;2023-06-22T05:22:23;12.48;;;8.10;;
24147;SDS011;12309;51.450;-2.624;2023-06-22T05:24:48;13.35;;;8.35;;
24147;SDS011;12309;51.450;-2.624;2023-06-22T05:27:14;10.50;;;7.57;;
24147;SDS011;12309;51.450;-2.624;2023-06-22T05:29:40;11.90;;;7.85;;
24147;SDS011;12309;51.450;-2.624;2023-06-22T05:32:07;11.43;;;7.93;;
24147;SDS011;12309;51.450;-2.624;2023-06-22T05:34:33;10.68;;;7.57;;
24147;SDS011;12309;51.450;-2.624;2023-06-22T05:36:59;12.68;;;7.93;;
24147;SDS011;12309;51.450;-2.624;2023-06-22T05:39:25;12.23;;;7.72;;
24147;SDS011;12309;51.450;-2.624;2023-06-22T05:41:51;11.02;;;7.72;;
24147;SDS011;12309;51.450;-2.624;2023-06-22T05:44:17;12.40;;;8.25;;
24147;SDS011;12309;51.450;-2.624;2023-06-22T05:46:43;13.38;;;7.78;;
24147;SDS011;12309;51.450;-2.624;2023-06-22T05:49:09;13.45;;;7.85;;
24147;SDS011;12309;51.450;-2.624;2023-06-22T05:51:36;14.07;;;7.93;;
24147;SDS011;12309;51.450;-2.624;2023-06-22T05:54:02;12.93;;;7.82;;
24147;SDS011;12309;51.450;-2.624;2023-06-22T05:56:27;13.43;;;7.78;;
24147;SDS011;12309;51.450;-2.624;2023-06-22T05:58:53;10.63;;;7.05;;
24147;SDS011;12309;51.450;-2.624;2023-06-22T06:01:19;13.23;;;7.60;;
24147;SDS011;12309;51.450;-2.624;2023-06-22T06:03:45;11.15;;;7.22;;
24147;SDS011;12309;51.450;-2.624;2023-06-22T06:06:11;9.95;;;7.75;;
24147;SDS011;12309;51.450;-2.624;2023-06-22T06:08:37;10.35;;;7.13;;
24147;SDS011;12309;51.450;-2.624;2023-06-22T06:11:03;11.00;;;7.68;;
24147;SDS011;12309;51.450;-2.624;2023-06-22T06:13:29;9.35;;;7.35;;
24147;SDS011;12309;51.450;-2.624;2023-06-22T06:15:55;12.82;;;6.57;;
24147;SDS011;12309;51.450;-2.624;2023-06-22T06:18:21;10.20;;;6.53;;
24147;SDS011;12309;51.450;-2.624;2023-06-22T06:20:47;11.18;;;6.93;;
24147;SDS011;12309;51.450;-2.624;2023-06-22T06:23:13;8.82;;;5.82;;
24147;SDS011;12309;51.450;-2.624;2023-06-22T06:25:39;7.35;;;5.18;;
24147;SDS011;12309;51.450;-2.624;2023-06-22T06:28:04;7.43;;;5.47;;
24147;SDS011;12309;51.450;-2.624;2023-06-22T06:30:30;8.55;;;5.25;;
24147;SDS011;12309;51.450;-2.624;2023-06-22T06:32:56;8.75;;;4.72;;
24147;SDS011;12309;51.450;-2.624;2023-06-22T06:35:21;6.63;;;4.43;;
24147;SDS011;12309;51.450;-2.624;2023-06-22T06:37:48;8.98;;;4.65;;
24147;SDS011;12309;51.450;-2.624;2023-06-22T06:40:15;9.20;;;4.75;;
24147;SDS011;12309;51.450;-2.624;2023-06-22T06:42:43;6.05;;;3.97;;
24147;SDS011;12309;51.450;-2.624;2023-06-22T06:45:11;5.00;;;3.88;;
24147;SDS011;12309;51.450;-2.624;2023-06-22T06:47:38;9.45;;;3.95;;
24147;SDS011;12309;51.450;-2.624;2023-06-22T06:50:05;6.03;;;3.63;;
24147;SDS011;12309;51.450;-2.624;2023-06-22T06:52:31;7.60;;;3.90;;
24147;SDS011;12309;51.450;-2.624;2023-06-22T06:54:57;7.93;;;3.95;;
24147;SDS011;12309;51.450;-2.624;2023-06-22T06:57:23;8.70;;;4.30;;
24147;SDS011;12309;51.450;-2.624;2023-06-22T06:59:49;6.22;;;4.10;;
24147;SDS011;12309;51.450;-2.624;2023-06-22T07:02:17;6.03;;;4.10;;
24147;SDS011;12309;51.450;-2.624;2023-06-22T07:04:43;5.57;;;4.03;;
24147;SDS011;12309;51.450;-2.624;2023-06-22T07:07:09;5.60;;;4.15;;
24147;SDS011;12309;51.450;-2.624;2023-06-22T07:09:35;12.07;;;4.40;;
24147;SDS011;12309;51.450;-2.624;2023-06-22T07:12:00;7.20;;;4.25;;
24147;SDS011;12309;51.450;-2.624;2023-06-22T07:14:26;5.82;;;3.92;;
24147;SDS011;12309;51.450;-2.624;2023-06-22T07:16:52;4.13;;;3.70;;
24147;SDS011;12309;51.450;-2.624;2023-06-22T07:19:23;7.30;;;4.15;;
24147;SDS011;12309;51.450;-2.624;2023-06-22T07:21:50;6.55;;;3.75;;
24147;SDS011;12309;51.450;-2.624;2023-06-22T07:24:16;10.30;;;3.95;;
24147;SDS011;12309;51.450;-2.624;2023-06-22T07:26:41;10.77;;;3.70;;
24147;SDS011;12309;51.450;-2.624;2023-06-22T07:29:10;7.93;;;3.80;;
24147;SDS011;12309;51.450;-2.624;2023-06-22T07:31:36;5.22;;;3.22;;
24147;SDS011;12309;51.450;-2.624;2023-06-22T07:34:02;5.90;;;3.47;;
24147;SDS011;12309;51.450;-2.624;2023-06-22T07:36:29;5.88;;;3.42;;
24147;SDS011;12309;51.450;-2.624;2023-06-22T07:38:55;5.20;;;3.70;;
24147;SDS011;12309;51.450;-2.624;2023-06-22T07:41:20;6.15;;;3.33;;
24147;SDS011;12309;51.450;-2.624;2023-06-22T07:43:46;8.52;;;3.90;;
24147;SDS011;12309;51.450;-2.624;2023-06-22T07:46:12;5.13;;;3.60;;
24147;SDS011;12309;51.450;-2.624;2023-06-22T07:48:38;5.80;;;3.35;;
24147;SDS011;12309;51.450;-2.624;2023-06-22T07:51:04;9.70;;;3.50;;
24147;SDS011;12309;51.450;-2.624;2023-06-22T07:53:31;4.63;;;2.97;;
24147;SDS011;12309;51.450;-2.624;2023-06-22T07:55:56;9.25;;;3.70;;
24147;SDS011;12309;51.450;-2.624;2023-06-22T07:58:22;7.43;;;3.67;;
24147;SDS011;12309;51.450;-2.624;2023-06-22T08:00:47;5.97;;;3.42;;
24147;SDS011;12309;51.450;-2.624;2023-06-22T08:03:14;5.05;;;3.80;;
24147;SDS011;12309;51.450;-2.624;2023-06-22T08:05:40;6.63;;;3.80;;
24147;SDS011;12309;51.450;-2.624;2023-06-22T08:08:05;5.78;;;3.80;;
24147;SDS011;12309;51.450;-2.624;2023-06-22T08:10:31;7.97;;;4.00;;
24147;SDS011;12309;51.450;-2.624;2023-06-22T08:12:57;6.75;;;4.03;;
24147;SDS011;12309;51.450;-2.624;2023-06-22T08:15:22;5.75;;;3.92;;
24147;SDS011;12309;51.450;-2.624;2023-06-22T08:17:48;7.53;;;4.22;;
24147;SDS011;12309;51.450;-2.624;2023-06-22T08:20:14;13.00;;;4.95;;
24147;SDS011;12309;51.450;-2.624;2023-06-22T08:22:43;7.20;;;4.50;;
24147;SDS011;12309;51.450;-2.624;2023-06-22T08:25:09;4.85;;;3.88;;
24147;SDS011;12309;51.450;-2.624;2023-06-22T08:27:35;9.57;;;4.38;;
24147;SDS011;12309;51.450;-2.624;2023-06-22T08:30:01;9.00;;;4.55;;
24147;SDS011;12309;51.450;-2.624;2023-06-22T08:32:28;6.90;;;4.43;;
24147;SDS011;12309;51.450;-2.624;2023-06-22T08:34:54;6.57;;;4.05;;
24147;SDS011;12309;51.450;-2.624;2023-06-22T08:37:20;7.78;;;4.05;;
24147;SDS011;12309;51.450;-2.624;2023-06-22T08:39:56;11.35;;;4.82;;
24147;SDS011;12309;51.450;-2.624;2023-06-22T08:42:23;11.27;;;4.35;;
24147;SDS011;12309;51.450;-2.624;2023-06-22T08:44:49;13.55;;;4.80;;
24147;SDS011;12309;51.450;-2.624;2023-06-22T08:47:15;8.13;;;3.85;;
24147;SDS011;12309;51.450;-2.624;2023-06-22T08:49:41;7.93;;;5.07;;
24147;SDS011;12309;51.450;-2.624;2023-06-22T08:52:06;9.57;;;4.45;;
24147;SDS011;12309;51.450;-2.624;2023-06-22T08:54:32;9.15;;;4.28;;
24147;SDS011;12309;51.450;-2.624;2023-06-22T08:56:59;11.13;;;4.15;;
24147;SDS011;12309;51.450;-2.624;2023-06-22T08:59:26;10.50;;;4.25;;
24147;SDS011;12309;51.450;-2.624;2023-06-22T09:01:51;10.05;;;4.25;;
24147;SDS011;12309;51.450;-2.624;2023-06-22T09:04:17;9.63;;;4.97;;
24147;SDS011;12309;51.450;-2.624;2023-06-22T09:06:43;7.88;;;4.45;;
24147;SDS011;12309;51.450;-2.624;2023-06-22T09:09:10;11.93;;;4.90;;
24147;SDS011;12309;51.450;-2.624;2023-06-22T09:11:40;8.35;;;4.28;;
24147;SDS011;12309;51.450;-2.624;2023-06-22T09:14:06;12.48;;;4.60;;
24147;SDS011;12309;51.450;-2.624;2023-06-22T09:16:32;7.30;;;4.60;;
24147;SDS011;12309;51.450;-2.624;2023-06-22T09:18:58;8.85;;;4.32;;
24147;SDS011;12309;51.450;-2.624;2023-06-22T09:21:23;7.32;;;4.00;;
24147;SDS011;12309;51.450;-2.624;2023-06-22T09:23:49;16.90;;;4.43;;
24147;SDS011;12309;51.450;-2.624;2023-06-22T09:26:18;7.68;;;4.10;;
24147;SDS011;12309;51.450;-2.624;2023-06-22T09:28:43;9.88;;;4.65;;
24147;SDS011;12309;51.450;-2.624;2023-06-22T09:31:09;8.10;;;3.80;;
24147;SDS011;12309;51.450;-2.624;2023-06-22T09:33:35;9.43;;;4.55;;
24147;SDS011;12309;51.450;-2.624;2023-06-22T09:36:03;9.57;;;4.22;;
24147;SDS011;12309;51.450;-2.624;2023-06-22T09:38:32;6.88;;;4.00;;
24147;SDS011;12309;51.450;-2.624;2023-06-22T09:41:02;5.53;;;3.58;;
24147;SDS011;12309;51.450;-2.624;2023-06-22T09:43:29;5.30;;;3.20;;
24147;SDS011;12309;51.450;-2.624;2023-06-22T09:45:57;8.00;;;3.53;;
24147;SDS011;12309;51.450;-2.624;2023-06-22T09:48:23;7.57;;;3.40;;
24147;SDS011;12309;51.450;-2.624;2023-06-22T09:50:49;10.23;;;3.63;;
24147;SDS011;12309;51.450;-2.624;2023-06-22T09:53:15;6.53;;;3.65;;
24147;SDS011;12309;51.450;-2.624;2023-06-22T09:55:40;5.20;;;2.92;;
24147;SDS011;12309;51.450;-2.624;2023-06-22T09:58:06;8.05;;;3.38;;
24147;SDS011;12309;51.450;-2.624;2023-06-22T10:00:31;7.63;;;3.30;;
24147;SDS011;12309;51.450;-2.624;2023-06-22T10:02:57;7.38;;;3.40;;
24147;SDS011;12309;51.450;-2.624;2023-06-22T10:05:23;8.57;;;3.47;;
24147;SDS011;12309;51.450;-2.624;2023-06-22T10:07:49;6.15;;;3.50;;
24147;SDS011;12309;51.450;-2.624;2023-06-22T10:10:15;9.18;;;3.25;;
24147;SDS011;12309;51.450;-2.624;2023-06-22T10:12:47;7.15;;;3.10;;
24147;SDS011;12309;51.450;-2.624;2023-06-22T10:15:20;6.85;;;3.30;;
24147;SDS011;12309;51.450;-2.624;2023-06-22T10:17:46;5.22;;;2.80;;
24147;SDS011;12309;51.450;-2.624;2023-06-22T10:20:12;6.63;;;3.45;;
24147;SDS011;12309;51.450;-2.624;2023-06-22T10:22:41;4.88;;;3.13;;
24147;SDS011;12309;51.450;-2.624;2023-06-22T10:25:08;3.90;;;2.53;;
24147;SDS011;12309;51.450;-2.624;2023-06-22T10:27:35;5.70;;;2.83;;
24147;SDS011;12309;51.450;-2.624;2023-06-22T10:30:00;3.55;;;2.30;;
24147;SDS011;12309;51.450;-2.624;2023-06-22T10:32:26;4.22;;;2.60;;
24147;SDS011;12309;51.450;-2.624;2023-06-22T10:34:53;5.63;;;2.40;;
24147;SDS011;12309;51.450;-2.624;2023-06-22T10:37:19;4.65;;;2.67;;
24147;SDS011;12309;51.450;-2.624;2023-06-22T10:39:45;4.50;;;2.50;;
24147;SDS011;12309;51.450;-2.624;2023-06-22T10:42:11;2.80;;;1.85;;
24147;SDS011;12309;51.450;-2.624;2023-06-22T10:44:37;5.32;;;2.80;;
24147;SDS011;12309;51.450;-2.624;2023-06-22T10:47:05;4.32;;;2.70;;
24147;SDS011;12309;51.450;-2.624;2023-06-22T10:49:31;2.60;;;2.28;;
24147;SDS011;12309;51.450;-2.624;2023-06-22T10:51:57;4.82;;;2.63;;
24147;SDS011;12309;51.450;-2.624;2023-06-22T10:54:23;6.50;;;2.40;;
24147;SDS011;12309;51.450;-2.624;2023-06-22T10:56:48;5.70;;;2.97;;
24147;SDS011;12309;51.450;-2.624;2023-06-22T10:59:14;6.50;;;2.70;;
24147;SDS011;12309;51.450;-2.624;2023-06-22T11:01:40;3.30;;;2.55;;
24147;SDS011;12309;51.450;-2.624;2023-06-22T11:04:05;4.93;;;2.17;;
24147;SDS011;12309;51.450;-2.624;2023-06-22T11:06:31;6.60;;;2.65;;
24147;SDS011;12309;51.450;-2.624;2023-06-22T11:08:56;2.92;;;2.05;;
24147;SDS011;12309;51.450;-2.624;2023-06-22T11:11:23;5.75;;;2.30;;
24147;SDS011;12309;51.450;-2.624;2023-06-22T11:13:50;5.43;;;2.65;;
24147;SDS011;12309;51.450;-2.624;2023-06-22T11:16:15;3.72;;;2.33;;
24147;SDS011;12309;51.450;-2.624;2023-06-22T11:18:41;6.15;;;2.45;;
24147;SDS011;12309;51.450;-2.624;2023-06-22T11:21:07;6.75;;;2.30;;
24147;SDS011;12309;51.450;-2.624;2023-06-22T11:23:32;3.42;;;2.45;;
24147;SDS011;12309;51.450;-2.624;2023-06-22T11:25:58;4.60;;;2.58;;
24147;SDS011;12309;51.450;-2.624;2023-06-22T11:28:23;7.07;;;2.80;;
24147;SDS011;12309;51.450;-2.624;2023-06-22T11:30:49;5.93;;;2.45;;
24147;SDS011;12309;51.450;-2.624;2023-06-22T11:33:15;3.53;;;2.50;;
24147;SDS011;12309;51.450;-2.624;2023-06-22T11:35:40;5.85;;;2.40;;
24147;SDS011;12309;51.450;-2.624;2023-06-22T11:38:06;5.65;;;2.80;;
24147;SDS011;12309;51.450;-2.624;2023-06-22T11:40:32;6.88;;;2.92;;
24147;SDS011;12309;51.450;-2.624;2023-06-22T11:42:58;3.53;;;2.25;;
24147;SDS011;12309;51.450;-2.624;2023-06-22T11:45:23;4.47;;;2.30;;
24147;SDS011;12309;51.450;-2.624;2023-06-22T11:47:49;4.63;;;2.13;;
24147;SDS011;12309;51.450;-2.624;2023-06-22T11:50:15;8.20;;;2.50;;
24147;SDS011;12309;51.450;-2.624;2023-06-22T11:52:40;3.00;;;2.05;;
24147;SDS011;12309;51.450;-2.624;2023-06-22T11:55:06;3.35;;;2.30;;
24147;SDS011;12309;51.450;-2.624;2023-06-22T11:57:33;5.93;;;2.40;;
24147;SDS011;12309;51.450;-2.624;2023-06-22T12:00:01;5.10;;;3.20;;
24147;SDS011;12309;51.450;-2.624;2023-06-22T12:02:31;2.80;;;2.10;;
24147;SDS011;12309;51.450;-2.624;2023-06-22T12:04:57;4.63;;;2.40;;
24147;SDS011;12309;51.450;-2.624;2023-06-22T12:07:23;6.30;;;2.17;;
24147;SDS011;12309;51.450;-2.624;2023-06-22T12:09:49;7.20;;;2.70;;
24147;SDS011;12309;51.450;-2.624;2023-06-22T12:12:14;4.40;;;2.50;;
24147;SDS011;12309;51.450;-2.624;2023-06-22T12:14:40;7.28;;;2.95;;
24147;SDS011;12309;51.450;-2.624;2023-06-22T12:17:06;7.38;;;2.90;;
24147;SDS011;12309;51.450;-2.624;2023-06-22T12:19:31;6.13;;;2.88;;
24147;SDS011;12309;51.450;-2.624;2023-06-22T12:21:57;4.00;;;2.67;;
24147;SDS011;12309;51.450;-2.624;2023-06-22T12:24:22;8.35;;;2.65;;
24147;SDS011;12309;51.450;-2.624;2023-06-22T12:26:48;5.97;;;2.83;;
24147;SDS011;12309;51.450;-2.624;2023-06-22T12:29:14;9.77;;;3.40;;
24147;SDS011;12309;51.450;-2.624;2023-06-22T12:31:40;7.10;;;3.08;;
24147;SDS011;12309;51.450;-2.624;2023-06-22T12:34:06;8.68;;;3.05;;
24147;SDS011;12309;51.450;-2.624;2023-06-22T12:36:32;6.30;;;2.78;;
24147;SDS011;12309;51.450;-2.624;2023-06-22T12:38:57;6.22;;;2.80;;
24147;SDS011;12309;51.450;-2.624;2023-06-22T12:41:23;6.30;;;3.13;;
24147;SDS011;12309;51.450;-2.624;2023-06-22T12:43:49;4.53;;;2.80;;
24147;SDS011;12309;51.450;-2.624;2023-06-22T12:46:14;5.60;;;2.95;;
24147;SDS011;12309;51.450;-2.624;2023-06-22T12:48:40;5.18;;;2.90;;
24147;SDS011;12309;51.450;-2.624;2023-06-22T12:51:07;3.25;;;2.30;;
24147;SDS011;12309;51.450;-2.624;2023-06-22T12:53:34;4.72;;;2.22;;
24147;SDS011;12309;51.450;-2.624;2023-06-22T12:56:00;5.15;;;2.55;;
24147;SDS011;12309;51.450;-2.624;2023-06-22T12:58:26;5.93;;;2.65;;
24147;SDS011;12309;51.450;-2.624;2023-06-22T13:00:52;5.10;;;2.42;;
24147;SDS011;12309;51.450;-2.624;2023-06-22T13:03:17;5.70;;;2.75;;
24147;SDS011;12309;51.450;-2.624;2023-06-22T13:05:43;5.82;;;2.92;;
24147;SDS011;12309;51.450;-2.624;2023-06-22T13:08:09;7.25;;;2.58;;
24147;SDS011;12309;51.450;-2.624;2023-06-22T13:10:35;7.18;;;2.63;;
24147;SDS011;12309;51.450;-2.624;2023-06-22T13:13:01;7.15;;;2.45;;
24147;SDS011;12309;51.450;-2.624;2023-06-22T13:15:27;6.45;;;2.40;;
24147;SDS011;12309;51.450;-2.624;2023-06-22T13:17:53;5.53;;;2.47;;
24147;SDS011;12309;51.450;-2.624;2023-06-22T13:20:20;4.70;;;2.40;;
24147;SDS011;12309;51.450;-2.624;2023-06-22T13:22:45;4.32;;;2.60;;
24147;SDS011;12309;51.450;-2.624;2023-06-22T13:25:11;5.00;;;2.42;;
24147;SDS011;12309;51.450;-2.624;2023-06-22T13:27:41;5.50;;;2.33;;
24147;SDS011;12309;51.450;-2.624;2023-06-22T13:30:07;3.58;;;2.40;;
24147;SDS011;12309;51.450;-2.624;2023-06-22T13:32:33;3.75;;;2.78;;
24147;SDS011;12309;51.450;-2.624;2023-06-22T13:34:59;5.72;;;2.20;;
24147;SDS011;12309;51.450;-2.624;2023-06-22T13:37:25;5.78;;;2.38;;
24147;SDS011;12309;51.450;-2.624;2023-06-22T13:39:51;7.03;;;2.25;;
24147;SDS011;12309;51.450;-2.624;2023-06-22T13:42:16;4.75;;;2.35;;
24147;SDS011;12309;51.450;-2.624;2023-06-22T13:44:42;4.05;;;2.20;;
24147;SDS011;12309;51.450;-2.624;2023-06-22T13:47:08;4.75;;;2.33;;
24147;SDS011;12309;51.450;-2.624;2023-06-22T13:49:33;3.97;;;2.33;;
24147;SDS011;12309;51.450;-2.624;2023-06-22T13:51:59;3.00;;;2.00;;
24147;SDS011;12309;51.450;-2.624;2023-06-22T13:54:25;3.20;;;2.03;;
24147;SDS011;12309;51.450;-2.624;2023-06-22T13:56:50;6.05;;;2.70;;
24147;SDS011;12309;51.450;-2.624;2023-06-22T13:59:16;5.53;;;1.98;;
24147;SDS011;12309;51.450;-2.624;2023-06-22T14:01:42;5.45;;;2.20;;
24147;SDS011;12309;51.450;-2.624;2023-06-22T14:04:08;6.97;;;2.10;;
24147;SDS011;12309;51.450;-2.624;2023-06-22T14:06:34;7.10;;;2.10;;
24147;SDS011;12309;51.450;-2.624;2023-06-22T14:08:59;5.63;;;2.25;;
24147;SDS011;12309;51.450;-2.624;2023-06-22T14:11:25;4.88;;;1.95;;
24147;SDS011;12309;51.450;-2.624;2023-06-22T14:13:50;5.88;;;2.00;;
24147;SDS011;12309;51.450;-2.624;2023-06-22T14:16:16;3.10;;;1.90;;
24147;SDS011;12309;51.450;-2.624;2023-06-22T14:18:42;4.10;;;1.95;;
24147;SDS011;12309;51.450;-2.624;2023-06-22T14:21:07;3.22;;;1.90;;
24147;SDS011;12309;51.450;-2.624;2023-06-22T14:23:33;6.15;;;1.80;;
24147;SDS011;12309;51.450;-2.624;2023-06-22T14:25:59;3.72;;;1.85;;
24147;SDS011;12309;51.450;-2.624;2023-06-22T14:28:24;3.80;;;2.15;;
24147;SDS011;12309;51.450;-2.624;2023-06-22T14:30:50;3.95;;;2.10;;